Terminal Aerodrome Forecast
Issued by NWS

Home | Current Version | Previous Version | Text Only | Print | Product List | Glossary On
Versions: 1 2 3 4 5 6 7 8 9 10 11 12 13 14 15 16 17
481
FTAK31 PAJN 251734
TAFAPG
TAF
PAPG 251734Z 2518/2618 00000KT P6SM SCT025 OVC035
     FM252100 VRB04KT P6SM VCSH OVC025
     FM260000 05006KT P6SM -SHRA SCT015 OVC025
     FM260300 06005KT P6SM -RA BKN015 OVC025
     FM261200 VRB03KT 4SM -RA BR OVC015
      AMD LTD TO CLD VIS AND WIND 2606/2615=

USA.gov is the U.S. government's official web portal to all federal, state and local government web resources and services.